Time;durP1;ratioP1;P1;durP2;ratioP2;P2;SDS_P1;SDS_P2;PMS_P1;PMS_P2;Temp;Humidity;BMP_temperature;BMP_pressure;BME280_temperature;BME280_humidity;BME280_pressure;Samples;Min_cycle;Max_cycle;Signal;HPM_P1;HPM_P2
2022/07/22 00:01:27;;;;;;;10.30;2.47;;;;;;;16.49;93.90;102144.94;4992721;28;20034;-72
2022/07/22 00:03:52;;;;;;;11.93;2.45;;;;;;;16.53;92.86;102141.75;4993144;28;20425;-72
2022/07/22 00:06:18;;;;;;;11.32;2.40;;;;;;;16.52;92.82;102140.13;4995111;28;20041;-72
2022/07/22 00:08:43;;;;;;;15.73;2.85;;;;;;;16.47;93.25;102151.13;4994713;28;20474;-72
2022/07/22 00:11:09;;;;;;;16.40;2.33;;;;;;;16.47;93.05;102135.50;4994778;28;20026;-72
2022/07/22 00:13:34;;;;;;;11.90;2.13;;;;;;;16.57;92.38;102136.94;4994127;28;20030;-72
2022/07/22 00:15:59;;;;;;;10.75;2.28;;;;;;;16.58;92.67;102138.56;4993806;28;20057;-71
2022/07/22 00:18:25;;;;;;;9.02;2.17;;;;;;;16.55;93.04;102141.56;4994735;28;20050;-72
2022/07/22 00:20:51;;;;;;;9.05;2.33;;;;;;;16.47;94.40;102132.06;4995248;28;20037;-73
2022/07/22 00:23:16;;;;;;;9.10;2.40;;;;;;;16.54;93.04;102135.50;4994287;28;20386;-73
2022/07/22 00:25:41;;;;;;;19.27;2.72;;;;;;;16.56;94.05;102143.16;4993432;28;20030;-72
2022/07/22 00:28:07;;;;;;;9.73;2.25;;;;;;;16.53;94.60;102140.94;4995092;28;20068;-73
2022/07/22 00:30:32;;;;;;;8.13;2.20;;;;;;;16.59;94.82;102132.34;4994739;28;20032;-72
2022/07/22 00:32:58;;;;;;;12.05;2.42;;;;;;;16.53;94.50;102138.31;4994862;28;20030;-72
2022/07/22 00:35:23;;;;;;;10.52;2.55;;;;;;;16.49;96.03;102130.09;4995074;28;20057;-73
2022/07/22 00:37:49;;;;;;;9.43;2.50;;;;;;;16.42;95.89;102132.66;4994867;28;20516;-71
2022/07/22 00:40:14;;;;;;;6.82;2.10;;;;;;;16.51;93.85;102133.28;4993106;28;20049;-72
2022/07/22 00:42:39;;;;;;;12.63;2.45;;;;;;;16.56;93.94;102130.13;4993532;28;20113;-72
2022/07/22 00:45:06;;;;;;;7.70;2.10;;;;;;;16.57;94.87;102129.94;4993280;28;20026;-72
2022/07/22 00:47:32;;;;;;;10.57;2.25;;;;;;;16.43;96.53;102123.03;4993728;28;20034;-71
2022/07/22 00:49:57;;;;;;;11.88;2.40;;;;;;;16.34;96.22;102122.38;4994872;28;20339;-72
2022/07/22 00:52:22;;;;;;;9.75;2.08;;;;;;;16.45;96.23;102126.25;4993157;28;20029;-73
2022/07/22 00:54:48;;;;;;;10.25;2.38;;;;;;;16.45;95.07;102121.81;4994320;28;20030;-72
2022/07/22 00:57:13;;;;;;;11.77;2.10;;;;;;;16.52;95.40;102121.88;4994417;28;20030;-72
2022/07/22 00:59:38;;;;;;;10.65;2.00;;;;;;;16.50;94.69;102110.81;4994381;28;20026;-72
2022/07/22 01:02:04;;;;;;;10.27;2.60;;;;;;;16.53;94.62;102112.25;4994642;28;20018;-72
2022/07/22 01:04:30;;;;;;;6.82;2.10;;;;;;;16.49;93.84;102124.88;4994189;28;20022;-72
2022/07/22 01:06:55;;;;;;;12.50;2.10;;;;;;;16.67;93.49;102119.13;4993091;28;20034;-72
2022/07/22 01:09:20;;;;;;;9.75;2.20;;;;;;;16.54;93.34;102112.03;4994430;28;20109;-72
2022/07/22 01:11:46;;;;;;;9.02;1.90;;;;;;;16.49;93.77;102124.88;4994412;28;20030;-72
2022/07/22 01:14:11;;;;;;;9.45;2.13;;;;;;;16.42;93.29;102124.81;4994335;28;20478;-72
2022/07/22 01:16:37;;;;;;;6.13;1.75;;;;;;;16.56;94.81;102119.69;4994117;28;20068;-72
2022/07/22 01:19:02;;;;;;;11.98;2.42;;;;;;;16.58;92.94;102122.91;4992781;28;20042;-72
2022/07/22 01:21:28;;;;;;;6.65;1.90;;;;;;;16.56;93.66;102124.88;4993187;28;20026;-72
2022/07/22 01:23:53;;;;;;;6.38;1.90;;;;;;;16.44;94.33;102122.03;4992932;28;20058;-72
2022/07/22 01:26:19;;;;;;;6.63;1.90;;;;;;;16.50;94.54;102118.66;4992725;28;20022;-73
2022/07/22 01:28:44;;;;;;;5.63;2.13;;;;;;;16.47;95.61;102114.63;4992768;28;20018;-71
2022/07/22 01:31:09;;;;;;;7.32;2.10;;;;;;;16.53;94.87;102113.03;4976574;28;20038;-72
2022/07/22 01:33:35;;;;;;;6.38;2.13;;;;;;;16.56;94.33;102110.03;4994254;28;20026;-72
2022/07/22 01:36:01;;;;;;;6.32;2.03;;;;;;;16.54;92.43;102117.25;4994131;28;20058;-71
2022/07/22 01:38:26;;;;;;;7.05;2.15;;;;;;;16.56;92.63;102115.25;4994331;28;20093;-72
2022/07/22 01:40:52;;;;;;;14.18;2.17;;;;;;;16.61;92.79;102114.69;4992835;28;20077;-72
2022/07/22 01:43:20;;;;;;;8.45;2.10;;;;;;;16.52;93.92;102108.03;4993867;28;20026;-73
2022/07/22 01:45:47;;;;;;;8.07;2.05;;;;;;;16.47;94.30;102098.97;4993979;28;20030;-72
2022/07/22 01:48:12;;;;;;;8.98;1.83;;;;;;;16.47;93.23;102100.78;4994052;28;20033;-72
2022/07/22 01:50:38;;;;;;;7.50;1.70;;;;;;;16.54;93.65;102106.81;4994012;28;20442;-72
2022/07/22 01:53:03;;;;;;;6.15;2.05;;;;;;;16.49;94.75;102109.22;4993573;28;20022;-71
2022/07/22 01:55:28;;;;;;;7.97;1.95;;;;;;;16.48;93.38;102115.41;4993883;28;20462;-74
2022/07/22 01:57:54;;;;;;;8.50;1.80;;;;;;;16.47;93.85;102113.81;4993912;28;20030;-73
2022/07/22 02:00:19;;;;;;;9.85;2.00;;;;;;;16.50;93.16;102113.44;4993781;28;20101;-73
2022/07/22 02:02:44;;;;;;;11.20;2.20;;;;;;;16.60;93.53;102110.44;4993885;28;20053;-71
2022/07/22 02:05:10;;;;;;;8.07;2.03;;;;;;;16.46;92.99;102109.59;4993712;28;20054;-72
2022/07/22 02:07:35;;;;;;;5.57;1.90;;;;;;;16.46;94.45;102107.00;4994005;28;20037;-72
2022/07/22 02:10:01;;;;;;;13.05;1.98;;;;;;;16.51;92.65;102115.03;4992686;28;20022;-72
2022/07/22 02:12:26;;;;;;;10.35;2.50;;;;;;;16.42;94.41;102110.97;4993995;28;20030;-71
2022/07/22 02:14:51;;;;;;;7.97;2.03;;;;;;;16.37;95.03;102105.53;4994018;28;20113;-72
2022/07/22 02:17:17;;;;;;;7.40;1.92;;;;;;;16.35;94.60;102103.13;4993515;28;20049;-72
2022/07/22 02:19:43;;;;;;;10.40;1.73;;;;;;;16.38;93.28;102102.72;4993727;28;20030;-71
2022/07/22 02:22:08;;;;;;;6.47;1.70;;;;;;;16.46;92.39;102102.56;4993817;28;20459;-72
2022/07/22 02:24:34;;;;;;;7.38;1.75;;;;;;;16.44;91.99;102098.53;4993883;28;20046;-71
2022/07/22 02:26:59;;;;;;;8.85;1.65;;;;;;;16.51;92.07;102082.91;4997802;28;20056;-72
2022/07/22 02:29:25;;;;;;;6.05;1.65;;;;;;;16.58;90.96;102086.38;4997301;28;20461;-72
2022/07/22 02:31:51;;;;;;;7.13;1.80;;;;;;;16.42;93.13;102090.09;4995826;28;20539;-72
2022/07/22 02:34:17;;;;;;;7.15;1.80;;;;;;;16.51;92.82;102088.13;4995746;28;20122;-71
2022/07/22 02:36:42;;;;;;;8.73;1.77;;;;;;;16.53;92.24;102089.56;4995687;28;20054;-72
2022/07/22 02:39:07;;;;;;;7.97;1.65;;;;;;;16.53;92.20;102089.56;4996879;28;20088;-73
2022/07/22 02:41:33;;;;;;;12.50;1.77;;;;;;;16.46;91.29;102088.72;4995513;28;20095;-72
2022/07/22 02:43:58;;;;;;;8.13;2.17;;;;;;;16.53;92.70;102091.38;4996933;28;20028;-72
2022/07/22 02:46:25;;;;;;;10.45;1.85;;;;;;;16.54;92.48;102098.19;4996416;28;20121;-72
2022/07/22 02:48:51;;;;;;;8.20;1.55;;;;;;;16.49;92.14;102090.16;4996839;28;20443;-72
2022/07/22 02:51:16;;;;;;;12.85;1.85;;;;;;;16.64;91.48;102090.81;4995500;28;20117;-72
2022/07/22 02:53:42;;;;;;;11.98;1.90;;;;;;;16.55;91.40;102087.56;4996708;28;20026;-72
2022/07/22 02:56:08;;;;;;;4.28;1.60;;;;;;;16.59;92.13;102087.97;4996662;28;20027;-72
2022/07/22 02:58:33;;;;;;;8.30;1.60;;;;;;;16.43;93.03;102091.72;4996629;28;20030;-72
2022/07/22 03:00:58;;;;;;;6.75;1.80;;;;;;;16.37;92.55;102097.69;4996474;28;20034;-73
2022/07/22 03:03:23;;;;;;;6.82;1.70;;;;;;;16.51;91.31;102096.75;4996423;28;20366;-72
2022/07/22 03:05:49;;;;;;;5.28;1.50;;;;;;;16.40;92.39;102099.91;4996564;28;20084;-72
2022/07/22 03:08:14;;;;;;;7.30;1.52;;;;;;;16.39;90.88;102100.94;4995096;28;20037;-72
2022/07/22 03:10:40;;;;;;;7.70;1.50;;;;;;;16.47;91.40;102098.16;4996456;28;20462;-73
2022/07/22 03:13:05;;;;;;;6.78;1.67;;;;;;;16.50;91.70;102095.16;4996609;28;20026;-73
2022/07/22 03:15:30;;;;;;;9.30;1.48;;;;;;;16.45;92.58;102093.13;4995246;28;20359;-73
2022/07/22 03:17:55;;;;;;;8.90;1.52;;;;;;;16.45;88.89;102098.34;4995883;28;20057;-73
2022/07/22 03:20:21;;;;;;;5.75;1.48;;;;;;;16.53;90.53;102102.59;4995041;28;20035;-71
2022/07/22 03:22:46;;;;;;;5.32;1.40;;;;;;;16.51;87.10;102104.59;4994809;28;20034;-72
2022/07/22 03:25:11;;;;;;;5.00;1.73;;;;;;;16.53;89.74;102099.19;4995833;28;20058;-71
2022/07/22 03:27:37;;;;;;;6.22;1.20;;;;;;;16.46;88.58;102089.53;4996209;28;20034;-71
2022/07/22 03:30:04;;;;;;;7.00;1.58;;;;;;;16.48;89.33;102091.94;4995715;28;20061;-72
2022/07/22 03:32:29;;;;;;;4.25;1.25;;;;;;;16.49;91.44;102108.41;4994690;28;20478;-72
2022/07/22 03:34:54;;;;;;;5.53;1.15;;;;;;;16.48;91.23;102104.97;4995903;28;20033;-73
2022/07/22 03:37:20;;;;;;;6.00;1.70;;;;;;;16.45;89.07;102097.53;4994457;28;20481;-72
2022/07/22 03:39:45;;;;;;;7.68;1.23;;;;;;;16.44;90.36;102103.75;4995825;28;20121;-72
2022/07/22 03:42:10;;;;;;;3.65;1.50;;;;;;;16.44;90.94;102099.34;4994251;28;20537;-72
2022/07/22 03:44:35;;;;;;;2.97;1.05;;;;;;;16.44;90.46;102095.94;4996002;28;20030;-72
2022/07/22 03:47:01;;;;;;;2.90;1.20;;;;;;;16.43;91.89;102099.56;4994233;28;20072;-72
2022/07/22 03:49:29;;;;;;;7.22;1.20;;;;;;;16.44;90.59;102104.56;4995846;28;20023;-72
2022/07/22 03:51:54;;;;;;;4.28;1.38;;;;;;;16.53;89.91;102093.97;4995694;28;20022;-70
2022/07/22 03:54:19;;;;;;;8.70;1.50;;;;;;;16.43;90.09;102096.94;4995381;28;20026;-72
2022/07/22 03:56:45;;;;;;;5.32;1.58;;;;;;;16.43;91.59;102092.53;4994019;28;20104;-71
2022/07/22 03:59:10;;;;;;;2.88;1.13;;;;;;;16.45;89.64;102093.13;4995227;28;20038;-71
2022/07/22 04:01:35;;;;;;;5.97;1.77;;;;;;;16.50;88.70;102089.13;4995652;28;20030;-71
2022/07/22 04:04:01;;;;;;;6.88;1.63;;;;;;;16.46;88.58;102092.13;4994166;28;20032;-72
2022/07/22 04:06:26;;;;;;;3.15;1.05;;;;;;;16.52;87.71;102093.16;4994037;28;20061;-72
2022/07/22 04:08:51;;;;;;;5.80;1.60;;;;;;;16.49;88.21;102098.78;4995275;28;20458;-72
2022/07/22 04:11:17;;;;;;;3.17;1.20;;;;;;;16.53;88.41;102100.00;4994027;28;20049;-72
2022/07/22 04:13:42;;;;;;;5.90;1.10;;;;;;;16.60;88.18;102093.00;4994927;28;20026;-72
2022/07/22 04:16:07;;;;;;;6.40;1.52;;;;;;;16.61;88.15;102088.59;4995038;28;20034;-72
2022/07/22 04:18:33;;;;;;;6.10;1.20;;;;;;;16.65;88.43;102093.19;4995033;28;20077;-72
2022/07/22 04:20:58;;;;;;;4.28;1.38;;;;;;;16.54;89.20;102098.19;4995037;28;20031;-72
2022/07/22 04:23:24;;;;;;;4.05;1.08;;;;;;;16.58;89.64;102088.97;4995245;28;20521;-72
2022/07/22 04:25:49;;;;;;;8.40;1.50;;;;;;;16.52;86.65;102090.56;4993801;28;20030;-72
2022/07/22 04:28:14;;;;;;;5.30;1.17;;;;;;;16.55;85.34;102082.34;4995157;28;20490;-72
2022/07/22 04:30:40;;;;;;;2.80;1.10;;;;;;;16.49;87.70;102084.94;4994645;28;20030;-72
2022/07/22 04:33:05;;;;;;;4.57;1.40;;;;;;;16.57;87.95;102082.97;4993613;28;20040;-73
2022/07/22 04:35:30;;;;;;;5.07;1.30;;;;;;;16.61;87.77;102084.16;4993847;28;20496;-72
2022/07/22 04:37:56;;;;;;;4.13;1.60;;;;;;;16.54;87.70;102075.50;4993383;28;20033;-72
2022/07/22 04:40:21;;;;;;;6.55;1.65;;;;;;;16.69;85.09;102073.56;4994710;28;20058;-72
2022/07/22 04:42:46;;;;;;;4.70;1.33;;;;;;;16.76;86.97;102071.00;4994836;28;20026;-72
2022/07/22 04:45:11;;;;;;;5.72;1.40;;;;;;;16.73;85.89;102070.56;4994721;28;20398;-72
2022/07/22 04:47:37;;;;;;;6.22;1.27;;;;;;;16.77;86.53;102056.94;4994232;28;20331;-72
2022/07/22 04:50:02;;;;;;;7.00;1.50;;;;;;;16.73;86.69;102070.56;4994548;28;20027;-72
2022/07/22 04:52:28;;;;;;;3.63;1.13;;;;;;;16.62;87.27;102064.88;4993295;28;20049;-72
2022/07/22 04:54:53;;;;;;;3.72;1.15;;;;;;;16.64;87.82;102068.13;4994422;28;20413;-72
2022/07/22 04:57:18;;;;;;;6.43;1.27;;;;;;;16.72;88.11;102066.34;4993286;28;20036;-72
2022/07/22 04:59:44;;;;;;;4.43;1.05;;;;;;;16.73;85.82;102065.34;4993003;28;20037;-72
2022/07/22 05:02:09;;;;;;;9.32;1.33;;;;;;;16.97;83.88;102064.00;4994786;28;20537;-72
2022/07/22 05:04:34;;;;;;;5.35;1.73;;;;;;;16.92;84.83;102075.06;4994532;28;20026;-72
2022/07/22 05:07:00;;;;;;;7.90;1.25;;;;;;;16.84;86.23;102072.63;4994487;28;20371;-72
2022/07/22 05:09:25;;;;;;;8.13;1.55;;;;;;;16.82;87.07;102069.41;4994407;28;20037;-72
2022/07/22 05:11:50;;;;;;;6.28;1.35;;;;;;;17.04;83.57;102077.91;4993148;28;20050;-72
2022/07/22 05:14:16;;;;;;;5.47;1.30;;;;;;;17.10;85.21;102077.09;4994207;28;20529;-71
2022/07/22 05:16:41;;;;;;;7.10;1.45;;;;;;;17.09;81.95;102083.31;4994125;28;20545;-71
2022/07/22 05:19:06;;;;;;;6.75;1.30;;;;;;;17.20;83.76;102081.94;4992923;28;20046;-71
2022/07/22 05:21:32;;;;;;;6.90;1.50;;;;;;;17.15;84.13;102087.78;4994360;28;20026;-71
2022/07/22 05:23:58;;;;;;;3.95;1.38;;;;;;;17.00;85.47;102087.13;4993224;28;20018;-71
2022/07/22 05:26:24;;;;;;;5.55;1.25;;;;;;;17.14;82.60;102084.31;4995368;28;20030;-71
2022/07/22 05:28:49;;;;;;;10.65;1.70;;;;;;;17.00;83.91;102077.47;4994134;28;20438;-72
2022/07/22 05:31:15;;;;;;;6.97;1.50;;;;;;;17.05;83.47;102082.91;4997787;28;20077;-71
2022/07/22 05:33:41;;;;;;;5.35;1.60;;;;;;;17.17;80.76;102077.91;5001780;28;20029;-71
2022/07/22 05:36:09;;;;;;;8.40;1.63;;;;;;;17.28;82.42;102093.00;4997502;28;20383;-72
2022/07/22 05:38:34;;;;;;;5.32;1.40;;;;;;;17.19;79.70;102088.16;5000635;28;20482;-72
2022/07/22 05:41:00;;;;;;;6.70;1.55;;;;;;;17.33;79.75;102087.97;5002335;28;20114;-69
2022/07/22 05:43:25;;;;;;;5.88;1.20;;;;;;;17.43;79.80;102090.19;5000870;28;20475;-71
2022/07/22 05:45:51;;;;;;;4.03;1.20;;;;;;;17.57;79.25;102089.19;4994336;28;20061;-70
2022/07/22 05:48:16;;;;;;;7.15;1.67;;;;;;;17.61;78.54;102094.84;4992815;28;20080;-71
2022/07/22 05:50:41;;;;;;;6.40;1.20;;;;;;;17.49;79.86;102094.63;4993016;28;20446;-70
2022/07/22 05:53:06;;;;;;;9.95;1.45;;;;;;;17.69;76.96;102088.56;4994193;28;20038;-71
2022/07/22 05:55:32;;;;;;;11.38;1.60;;;;;;;17.74;77.89;102086.97;4994003;28;20042;-68
2022/07/22 05:57:57;;;;;;;7.90;1.50;;;;;;;17.71;79.08;102086.56;4993989;28;20031;-68
2022/07/22 06:00:22;;;;;;;5.22;1.52;;;;;;;17.72;78.79;102090.78;4994720;28;20030;-68
2022/07/22 06:02:48;;;;;;;5.80;1.30;;;;;;;17.77;77.46;102089.16;4996683;28;20597;-69
2022/07/22 06:05:13;;;;;;;3.78;1.27;;;;;;;17.84;77.83;102091.84;4996929;28;20362;-68
2022/07/22 06:07:38;;;;;;;6.10;1.30;;;;;;;17.82;78.54;102088.59;4997518;28;20023;-69
2022/07/22 06:10:04;;;;;;;5.57;1.50;;;;;;;17.92;79.82;102088.97;4997628;28;20018;-70
2022/07/22 06:12:29;;;;;;;4.32;1.42;;;;;;;18.02;79.87;102086.75;4996145;28;20038;-69
2022/07/22 06:14:54;;;;;;;3.40;1.38;;;;;;;17.92;76.11;102081.13;4997157;28;20031;-69
2022/07/22 06:17:20;;;;;;;11.05;1.80;;;;;;;17.80;76.08;102077.53;4995934;28;20417;-69
2022/07/22 06:19:45;;;;;;;9.20;1.60;;;;;;;17.98;76.31;102082.97;4995921;28;20089;-69
2022/07/22 06:22:11;;;;;;;6.18;1.60;;;;;;;17.91;81.55;102082.16;4995816;28;20026;-70
2022/07/22 06:24:36;;;;;;;6.70;1.30;;;;;;;17.97;77.33;102083.94;4997126;28;20478;-69
2022/07/22 06:27:01;;;;;;;5.80;1.40;;;;;;;18.14;75.71;102081.69;4995867;28;20444;-70
2022/07/22 06:29:27;;;;;;;6.60;1.60;;;;;;;18.24;75.36;102096.94;4997173;28;20077;-69
2022/07/22 06:31:52;;;;;;;5.95;1.38;;;;;;;18.09;74.89;102091.97;4996953;28;20109;-69
2022/07/22 06:34:17;;;;;;;5.75;1.27;;;;;;;18.29;74.57;102091.13;4996946;28;20030;-70
2022/07/22 06:36:43;;;;;;;3.97;1.35;;;;;;;18.34;74.03;102092.09;4996938;28;20026;-69
2022/07/22 06:39:08;;;;;;;8.00;1.67;;;;;;;18.42;73.26;102091.88;4996600;28;20129;-69
2022/07/22 06:41:33;;;;;;;7.10;1.50;;;;;;;18.51;74.66;102089.03;4996571;28;20026;-68
2022/07/22 06:43:58;;;;;;;4.40;1.30;;;;;;;18.42;73.86;102091.09;4996710;28;20045;-69
2022/07/22 06:46:24;;;;;;;6.53;1.13;;;;;;;18.66;74.29;102086.94;4996812;28;20073;-69
2022/07/22 06:48:49;;;;;;;3.50;1.20;;;;;;;18.84;73.14;102086.28;4996891;28;20026;-69
2022/07/22 06:51:15;;;;;;;3.20;1.15;;;;;;;18.68;74.54;102080.50;4996452;28;20026;-68
2022/07/22 06:53:41;;;;;;;4.28;1.30;;;;;;;18.94;69.03;102094.50;4996332;28;20022;-68
2022/07/22 06:56:06;;;;;;;6.60;1.60;;;;;;;18.94;70.41;102086.63;4995362;28;20038;-69
2022/07/22 06:58:32;;;;;;;4.68;1.17;;;;;;;18.90;70.79;102091.50;4995567;28;20386;-69
2022/07/22 07:00:57;;;;;;;4.55;1.40;;;;;;;18.78;71.50;102084.50;4996703;28;20105;-68
2022/07/22 07:03:25;;;;;;;8.45;1.58;;;;;;;19.03;69.86;102089.81;4995004;28;20027;-69
2022/07/22 07:05:50;;;;;;;4.85;1.50;;;;;;;19.20;68.89;102084.84;4995163;28;20026;-68
2022/07/22 07:08:15;;;;;;;5.10;1.25;;;;;;;19.60;67.30;102074.84;4995199;28;20454;-69
2022/07/22 07:10:41;;;;;;;7.88;1.35;;;;;;;19.53;64.72;102076.72;4994389;28;20433;-69
2022/07/22 07:13:06;;;;;;;5.03;1.48;;;;;;;19.75;64.23;102083.22;4996059;28;20033;-69
2022/07/22 07:15:32;;;;;;;5.90;1.40;;;;;;;19.73;65.27;102074.75;4996038;28;20085;-69
2022/07/22 07:17:57;;;;;;;4.78;1.73;;;;;;;19.83;61.61;102082.13;4995971;28;20474;-68
2022/07/22 07:20:24;;;;;;;5.65;1.15;;;;;;;20.01;60.57;102086.59;4994422;28;20027;-68
2022/07/22 07:22:49;;;;;;;3.10;1.30;;;;;;;20.06;63.00;102084.13;4994654;28;20032;-69
2022/07/22 07:25:15;;;;;;;6.80;1.67;;;;;;;20.45;60.09;102090.72;4996098;28;20026;-69
2022/07/22 07:27:40;;;;;;;8.57;1.60;;;;;;;20.06;63.34;102084.91;4995454;28;20030;-70
2022/07/22 07:30:07;;;;;;;5.53;1.50;;;;;;;19.87;61.60;102088.53;4995185;28;20057;-70
2022/07/22 07:32:32;;;;;;;3.97;1.40;;;;;;;19.96;59.38;102092.47;4994651;28;20073;-70
2022/07/22 07:34:57;;;;;;;3.60;1.00;;;;;;;19.92;59.57;102095.78;4994649;28;20058;-69
2022/07/22 07:37:23;;;;;;;3.83;1.40;;;;;;;20.00;60.06;102082.38;4993030;28;20061;-70
2022/07/22 07:39:48;;;;;;;4.72;1.27;;;;;;;19.97;60.49;102080.19;4994784;28;20477;-69
2022/07/22 07:42:13;;;;;;;5.18;1.40;;;;;;;20.00;60.36;102079.75;4995422;28;20026;-69
2022/07/22 07:44:39;;;;;;;3.92;1.40;;;;;;;20.39;58.65;102088.19;4995955;28;20022;-68
2022/07/22 07:47:05;;;;;;;2.72;1.00;;;;;;;20.29;59.18;102086.09;4995514;28;20445;-69
2022/07/22 07:49:30;;;;;;;5.25;1.25;;;;;;;20.16;59.38;102089.63;4995868;28;20045;-68
2022/07/22 07:51:55;;;;;;;2.17;1.13;;;;;;;20.05;60.37;102087.75;4995409;28;20442;-68
2022/07/22 07:54:20;;;;;;;3.63;0.98;;;;;;;20.15;59.01;102088.03;4994272;28;20210;-69
2022/07/22 07:56:46;;;;;;;8.90;1.50;;;;;;;20.43;58.95;102092.78;4995633;28;20022;-69
2022/07/22 07:59:11;;;;;;;6.90;1.48;;;;;;;20.26;61.01;102087.31;4995394;28;20018;-69
2022/07/22 08:01:37;;;;;;;4.28;1.20;;;;;;;20.20;60.74;102088.19;4995067;28;20026;-69
2022/07/22 08:04:02;;;;;;;4.03;1.23;;;;;;;20.08;60.59;102087.31;4995714;28;20037;-69
2022/07/22 08:06:27;;;;;;;3.20;1.17;;;;;;;20.34;57.81;102080.97;4995342;28;20419;-69
2022/07/22 08:08:53;;;;;;;7.38;1.40;;;;;;;20.54;60.51;102096.50;4995325;28;20030;-69
2022/07/22 08:11:18;;;;;;;6.22;1.15;;;;;;;20.32;57.23;102077.75;4995439;28;20057;-69
2022/07/22 08:13:44;;;;;;;2.35;1.15;;;;;;;20.39;58.79;102088.97;4995104;28;20030;-70
2022/07/22 08:16:09;;;;;;;4.07;1.35;;;;;;;20.74;57.05;102088.34;4995129;28;20030;-69
2022/07/22 08:18:34;;;;;;;4.50;1.17;;;;;;;20.68;56.31;102087.41;4993329;28;20053;-70
2022/07/22 08:21:00;;;;;;;5.25;1.30;;;;;;;20.71;55.42;102089.63;4994827;28;20034;-70
2022/07/22 08:23:25;;;;;;;4.68;1.55;;;;;;;20.76;56.92;102096.81;4993948;28;20081;-70
2022/07/22 08:25:50;;;;;;;3.90;1.20;;;;;;;20.61;55.78;102094.59;4994802;28;20053;-69
2022/07/22 08:28:16;;;;;;;5.55;1.30;;;;;;;20.53;56.30;102089.66;4994816;28;20110;-69
2022/07/22 08:30:41;;;;;;;4.15;1.52;;;;;;;20.62;55.34;102080.44;4993714;28;20081;-69
2022/07/22 08:33:09;;;;;;;4.50;1.58;;;;;;;20.91;56.45;102088.53;4994767;28;20065;-68
2022/07/22 08:35:34;;;;;;;5.75;1.60;;;;;;;21.26;53.33;102087.81;4993691;28;20461;-68
2022/07/22 08:37:59;;;;;;;4.03;1.63;;;;;;;21.59;54.13;102095.19;4993659;28;20074;-68
2022/07/22 08:40:25;;;;;;;9.18;1.60;;;;;;;21.61;54.08;102086.06;4994899;28;20026;-68
2022/07/22 08:42:51;;;;;;;5.00;1.58;;;;;;;21.26;51.17;102088.63;4993347;28;20091;-68
2022/07/22 08:45:17;;;;;;;4.65;1.90;;;;;;;21.15;52.62;102084.94;4993336;28;20092;-69
2022/07/22 08:47:51;;;;;;;4.18;1.75;;;;;;;20.90;51.86;102082.47;4994309;28;20026;-70
2022/07/22 08:50:17;;;;;;;5.70;1.70;;;;;;;21.46;53.32;102075.16;4993412;28;20030;-70
2022/07/22 08:52:43;;;;;;;2.85;1.67;;;;;;;21.94;53.67;102076.75;4994186;28;20041;-70
2022/07/22 08:55:09;;;;;;;4.65;1.50;;;;;;;21.76;50.61;102071.63;4994392;28;20026;-70
2022/07/22 08:57:36;;;;;;;3.95;1.63;;;;;;;22.20;52.41;102072.03;4993544;28;20033;-70
2022/07/22 09:00:10;;;;;;;6.72;2.00;;;;;;;22.72;50.44;102064.84;5002790;28;20053;-69
2022/07/22 09:02:38;;;;;;;3.50;1.80;;;;;;;23.49;48.38;102055.53;4991574;28;20027;-69
2022/07/22 09:05:06;;;;;;;6.22;1.60;;;;;;;23.71;48.39;102058.25;5007516;28;20033;-69
2022/07/22 09:07:34;;;;;;;5.25;1.90;;;;;;;24.33;45.82;102042.06;5008240;28;20031;-69
2022/07/22 09:10:00;;;;;;;4.47;1.85;;;;;;;24.33;44.39;102057.09;5002895;28;20037;-70
2022/07/22 09:12:31;;;;;;;2.95;1.58;;;;;;;24.66;43.74;102047.44;4993284;28;20022;-69
2022/07/22 09:14:59;;;;;;;4.70;1.75;;;;;;;24.30;42.83;102047.03;4993635;28;20022;-71
2022/07/22 09:17:33;;;;;;;8.02;1.83;;;;;;;24.98;44.24;102060.66;4992783;28;20027;-71
2022/07/22 09:19:59;;;;;;;3.53;1.60;;;;;;;24.63;44.50;102053.19;4994932;28;20097;-70
2022/07/22 09:22:43;;;;;;;3.30;1.30;;;;;;;24.23;45.80;102047.25;4994090;28;20030;-71
2022/07/22 09:25:28;;;;;;;6.90;1.70;;;;;;;24.58;44.47;102053.97;4993119;28;20501;-70
2022/07/22 09:28:22;;;;;;;3.20;1.48;;;;;;;23.71;44.09;102058.25;4994465;28;20030;-70
2022/07/22 09:30:50;;;;;;;3.67;1.70;;;;;;;22.85;45.76;102058.47;4993152;28;20050;-70
2022/07/22 09:33:16;;;;;;;6.53;1.73;;;;;;;23.05;48.18;102054.63;4994272;28;20027;-70
2022/07/22 09:35:43;;;;;;;6.05;1.90;;;;;;;23.10;48.15;102055.50;4997539;28;20168;-71
2022/07/22 09:38:11;;;;;;;3.22;2.00;;;;;;;22.99;47.64;102061.63;4998281;28;20026;-70
2022/07/22 09:40:42;;;;;;;4.93;2.13;;;;;;;22.38;50.27;102058.69;4996654;28;20540;-70
2022/07/22 09:43:14;;;;;;;5.22;2.10;;;;;;;21.92;50.02;102051.69;4997160;28;20124;-70
2022/07/22 09:45:48;;;;;;;5.20;2.30;;;;;;;21.66;50.75;102050.34;4998438;28;20029;-71
2022/07/22 09:48:15;;;;;;;3.75;2.45;;;;;;;21.96;49.93;102044.94;4998052;28;20049;-69
2022/07/22 09:50:40;;;;;;;5.50;2.35;;;;;;;21.91;49.62;102050.91;4996710;28;20072;-70
2022/07/22 09:53:07;;;;;;;5.35;2.40;;;;;;;22.97;46.55;102059.22;4997685;28;20406;-70
2022/07/22 09:55:33;;;;;;;5.40;2.40;;;;;;;22.79;46.34;102048.06;4997782;28;20365;-70
2022/07/22 09:57:59;;;;;;;3.42;2.13;;;;;;;22.41;47.38;102055.59;4996658;28;20120;-71
2022/07/22 10:00:26;;;;;;;5.25;2.55;;;;;;;21.61;48.72;102048.44;4996531;28;20046;-70
2022/07/22 10:02:59;;;;;;;3.80;2.55;;;;;;;21.31;48.19;102044.03;4997848;28;20026;-70
2022/07/22 10:05:33;;;;;;;5.35;2.80;;;;;;;21.73;47.83;102051.03;4997285;28;20019;-71
2022/07/22 10:08:01;;;;;;;4.93;2.80;;;;;;;22.20;47.72;102046.50;4996879;28;20022;-71
2022/07/22 10:10:28;;;;;;;4.50;2.47;;;;;;;22.24;46.81;102045.00;4997541;28;20031;-70
2022/07/22 10:12:57;;;;;;;6.20;2.40;;;;;;;22.26;47.03;102052.66;4997762;28;20033;-70
2022/07/22 10:15:23;;;;;;;5.82;2.35;;;;;;;23.26;46.89;102067.06;4997503;28;20109;-71
2022/07/22 10:17:52;;;;;;;6.35;2.20;;;;;;;23.13;45.72;102060.28;4997020;28;20560;-71
2022/07/22 10:20:20;;;;;;;5.88;2.30;;;;;;;23.51;45.61;102058.72;4995943;28;20114;-70
2022/07/22 10:23:00;;;;;;;5.88;2.20;;;;;;;22.81;47.24;102065.25;4995801;28;20133;-71
2022/07/22 10:25:47;;;;;;;4.40;1.67;;;;;;;22.27;48.11;102060.34;4996240;28;20022;-71
2022/07/22 10:28:21;;;;;;;3.63;1.90;;;;;;;22.58;48.62;102070.63;4995429;28;20030;-71
2022/07/22 10:30:47;;;;;;;4.22;1.77;;;;;;;22.87;47.64;102068.75;4996813;28;20018;-70
2022/07/22 10:33:14;;;;;;;3.40;1.70;;;;;;;23.00;47.98;102065.06;4996927;28;20176;-70
2022/07/22 10:35:45;;;;;;;5.40;1.90;;;;;;;23.68;46.65;102056.06;4996987;28;20046;-69
2022/07/22 10:38:13;;;;;;;3.40;1.80;;;;;;;23.42;45.30;102047.00;4996867;28;20030;-71
2022/07/22 10:41:07;;;;;;;4.43;2.00;;;;;;;22.93;47.92;102055.44;4996191;28;20019;-71
2022/07/22 10:43:41;;;;;;;3.88;1.60;;;;;;;22.59;46.89;102056.44;4996005;28;20034;-69
2022/07/22 10:46:09;;;;;;;3.70;1.52;;;;;;;22.40;48.43;102050.56;4994404;28;20125;-70
2022/07/22 10:48:37;;;;;;;8.15;2.05;;;;;;;22.78;48.22;102055.19;4996763;28;20370;-70
2022/07/22 10:51:11;;;;;;;5.25;1.95;;;;;;;22.52;48.57;102056.56;4995749;28;20387;-70
2022/07/22 10:54:02;;;;;;;4.50;1.60;;;;;;;22.29;47.10;102062.72;4995532;28;20030;-70
2022/07/22 10:56:31;;;;;;;2.25;1.45;;;;;;;22.57;48.44;102059.31;4995628;28;20073;-70
2022/07/22 10:59:12;;;;;;;4.60;1.85;;;;;;;22.58;45.71;102054.81;4995770;28;20377;-71
2022/07/22 11:01:40;;;;;;;3.30;2.00;;;;;;;22.93;45.33;102059.91;4996593;28;20023;-70
2022/07/22 11:04:15;;;;;;;3.63;1.80;;;;;;;22.82;45.69;102047.63;4995123;28;20121;-71
2022/07/22 11:06:42;;;;;;;6.25;2.25;;;;;;;23.04;47.04;102059.06;4995719;28;20438;-71
2022/07/22 11:09:10;;;;;;;4.18;1.90;;;;;;;23.21;46.31;102061.69;4996663;28;20105;-70
2022/07/22 11:11:41;;;;;;;5.13;1.90;;;;;;;22.64;46.42;102059.97;4995030;28;20110;-71
2022/07/22 11:14:20;;;;;;;4.63;1.80;;;;;;;22.65;45.34;102047.59;4995108;28;20030;-70
2022/07/22 11:16:49;;;;;;;4.95;2.13;;;;;;;22.50;48.29;102042.84;4994870;28;20045;-71
2022/07/22 11:19:19;;;;;;;3.92;1.77;;;;;;;22.74;47.29;102036.41;4994543;28;20109;-70
2022/07/22 11:21:49;;;;;;;4.05;1.80;;;;;;;23.40;48.17;102034.03;4995975;28;20019;-69